sensor_id;sensor_type;location;lat;lon;timestamp;pressure;altitude;pressure_sealevel;temperature;humidity
64158;BME280;50449;51.528;5.076;2024-03-23T00:54:06;101049.31;;;12.51;66.25
64158;BME280;50449;51.528;5.076;2024-03-23T00:56:32;101043.31;;;12.49;66.17
64158;BME280;50449;51.528;5.076;2024-03-23T00:58:57;101042.72;;;12.47;66.01
64158;BME280;50449;51.528;5.076;2024-03-23T01:01:22;101047.34;;;12.46;66.18
64158;BME280;50449;51.528;5.076;2024-03-23T01:03:48;101029.44;;;12.45;66.16
64158;BME280;50449;51.528;5.076;2024-03-23T01:06:13;101022.13;;;12.46;66.38
64158;BME280;50449;51.528;5.076;2024-03-23T01:08:38;101007.78;;;12.45;66.52
64158;BME280;50449;51.528;5.076;2024-03-23T01:11:04;100999.06;;;12.43;66.13
64158;BME280;50449;51.528;5.076;2024-03-23T01:13:30;101002.81;;;12.42;66.51
64158;BME280;50449;51.528;5.076;2024-03-23T01:15:56;101002.81;;;12.42;66.21
64158;BME280;50449;51.528;5.076;2024-03-23T01:18:23;101001.44;;;12.40;66.47
64158;BME280;50449;51.528;5.076;2024-03-23T01:20:49;101004.16;;;12.40;66.32
64158;BME280;50449;51.528;5.076;2024-03-23T01:23:14;101016.06;;;12.39;66.32
64158;BME280;50449;51.528;5.076;2024-03-23T01:25:40;101011.72;;;12.38;66.27
64158;BME280;50449;51.528;5.076;2024-03-23T01:28:06;101019.00;;;12.37;66.06
64158;BME280;50449;51.528;5.076;2024-03-23T01:30:32;101009.25;;;12.36;66.14
64158;BME280;50449;51.528;5.076;2024-03-23T01:32:57;101013.03;;;12.35;66.15
64158;BME280;50449;51.528;5.076;2024-03-23T01:35:23;101020.59;;;12.33;66.30
64158;BME280;50449;51.528;5.076;2024-03-23T01:37:48;101012.97;;;12.30;66.09
64158;BME280;50449;51.528;5.076;2024-03-23T01:40:13;101018.84;;;12.27;66.23
64158;BME280;50449;51.528;5.076;2024-03-23T01:42:42;101015.31;;;12.26;66.08
64158;BME280;50449;51.528;5.076;2024-03-23T01:45:08;101016.06;;;12.22;65.77
64158;BME280;50449;51.528;5.076;2024-03-23T01:47:34;101008.72;;;12.17;65.87
64158;BME280;50449;51.528;5.076;2024-03-23T01:49:59;100986.19;;;12.17;65.57
64158;BME280;50449;51.528;5.076;2024-03-23T01:52:26;100973.97;;;12.14;65.82
64158;BME280;50449;51.528;5.076;2024-03-23T01:54:52;100963.13;;;12.14;66.03
64158;BME280;50449;51.528;5.076;2024-03-23T01:57:18;100967.75;;;12.13;66.24
64158;BME280;50449;51.528;5.076;2024-03-23T01:59:43;100965.03;;;12.13;66.23
64158;BME280;50449;51.528;5.076;2024-03-23T02:02:09;100961.28;;;12.15;66.24
64158;BME280;50449;51.528;5.076;2024-03-23T02:04:34;100960.44;;;12.14;66.01
64158;BME280;50449;51.528;5.076;2024-03-23T02:07:00;100963.97;;;12.15;66.28
64158;BME280;50449;51.528;5.076;2024-03-23T02:09:25;100958.56;;;12.15;65.97
64158;BME280;50449;51.528;5.076;2024-03-23T02:11:50;100957.72;;;12.14;66.32
64158;BME280;50449;51.528;5.076;2024-03-23T02:14:16;100947.16;;;12.12;66.14
64158;BME280;50449;51.528;5.076;2024-03-23T02:16:41;100949.06;;;12.12;66.12
64158;BME280;50449;51.528;5.076;2024-03-23T02:19:08;100948.22;;;12.11;66.31
64158;BME280;50449;51.528;5.076;2024-03-23T02:21:34;100947.41;;;12.11;66.28
64158;BME280;50449;51.528;5.076;2024-03-23T02:23:59;100943.06;;;12.10;66.35
64158;BME280;50449;51.528;5.076;2024-03-23T02:26:25;100944.09;;;12.09;66.12
64158;BME280;50449;51.528;5.076;2024-03-23T02:28:50;100951.41;;;12.08;65.96
64158;BME280;50449;51.528;5.076;2024-03-23T02:31:16;100958.72;;;12.08;66.16
64158;BME280;50449;51.528;5.076;2024-03-23T02:33:41;100950.84;;;12.06;66.18
64158;BME280;50449;51.528;5.076;2024-03-23T02:36:07;100961.94;;;12.05;66.34
64158;BME280;50449;51.528;5.076;2024-03-23T02:38:32;100958.38;;;12.04;65.98
64158;BME280;50449;51.528;5.076;2024-03-23T02:41:03;100956.75;;;12.03;66.29
64158;BME280;50449;51.528;5.076;2024-03-23T02:43:28;100951.56;;;12.02;65.96
64158;BME280;50449;51.528;5.076;2024-03-23T02:45:54;100953.75;;;12.00;66.09
64158;BME280;50449;51.528;5.076;2024-03-23T02:48:19;100956.69;;;11.98;65.87
64158;BME280;50449;51.528;5.076;2024-03-23T02:50:44;100953.38;;;11.96;66.05
64158;BME280;50449;51.528;5.076;2024-03-23T02:53:10;100949.06;;;11.95;66.13
64158;BME280;50449;51.528;5.076;2024-03-23T02:55:35;100956.09;;;11.96;66.08
64158;BME280;50449;51.528;5.076;2024-03-23T02:58:01;100952.81;;;11.94;65.99
64158;BME280;50449;51.528;5.076;2024-03-23T03:00:28;100949.28;;;11.94;66.15
64158;BME280;50449;51.528;5.076;2024-03-23T03:02:53;100948.47;;;11.93;65.91
64158;BME280;50449;51.528;5.076;2024-03-23T03:05:18;100945.19;;;11.91;66.08
64158;BME280;50449;51.528;5.076;2024-03-23T03:07:44;100955.19;;;11.90;65.98
64158;BME280;50449;51.528;5.076;2024-03-23T03:10:09;100956.28;;;11.89;65.68
64158;BME280;50449;51.528;5.076;2024-03-23T03:12:36;100953.81;;;11.88;65.88
64158;BME280;50449;51.528;5.076;2024-03-23T03:15:03;100944.06;;;11.87;66.23
64158;BME280;50449;51.528;5.076;2024-03-23T03:17:30;100944.25;;;11.85;65.93
64158;BME280;50449;51.528;5.076;2024-03-23T03:19:55;100950.50;;;11.86;66.15
64158;BME280;50449;51.528;5.076;2024-03-23T03:22:22;100948.88;;;11.85;66.00
64158;BME280;50449;51.528;5.076;2024-03-23T03:24:47;100944.50;;;11.84;65.95
64158;BME280;50449;51.528;5.076;2024-03-23T03:27:12;100947.47;;;11.82;65.84
64158;BME280;50449;51.528;5.076;2024-03-23T03:29:38;100943.94;;;11.82;65.81
64158;BME280;50449;51.528;5.076;2024-03-23T03:32:03;100946.06;;;11.80;65.90
64158;BME280;50449;51.528;5.076;2024-03-23T03:34:29;100944.41;;;11.79;65.81
64158;BME280;50449;51.528;5.076;2024-03-23T03:36:55;100940.91;;;11.78;65.88
64158;BME280;50449;51.528;5.076;2024-03-23T03:39:20;100945.72;;;11.76;65.80
64158;BME280;50449;51.528;5.076;2024-03-23T03:41:48;100940.59;;;11.75;65.95
64158;BME280;50449;51.528;5.076;2024-03-23T03:44:13;100941.41;;;11.75;65.91
64158;BME280;50449;51.528;5.076;2024-03-23T03:46:38;100937.88;;;11.75;65.66
64158;BME280;50449;51.528;5.076;2024-03-23T03:49:04;100931.88;;;11.73;65.67
64158;BME280;50449;51.528;5.076;2024-03-23T03:51:29;100926.69;;;11.71;65.49
64158;BME280;50449;51.528;5.076;2024-03-23T03:53:54;100927.78;;;11.70;65.60
64158;BME280;50449;51.528;5.076;2024-03-23T03:56:20;100921.56;;;11.69;65.96
64158;BME280;50449;51.528;5.076;2024-03-23T03:58:47;100918.28;;;11.67;65.46
64158;BME280;50449;51.528;5.076;2024-03-23T04:01:12;100920.97;;;11.67;65.57
64158;BME280;50449;51.528;5.076;2024-03-23T04:03:37;100917.91;;;11.64;65.68
64158;BME280;50449;51.528;5.076;2024-03-23T04:06:08;100919.00;;;11.63;65.72
64158;BME280;50449;51.528;5.076;2024-03-23T04:08:34;100920.88;;;11.62;65.48
64158;BME280;50449;51.528;5.076;2024-03-23T04:10:59;100920.31;;;11.60;65.72
64158;BME280;50449;51.528;5.076;2024-03-23T04:13:24;100919.50;;;11.60;65.60
64158;BME280;50449;51.528;5.076;2024-03-23T04:15:54;100917.84;;;11.59;65.73
64158;BME280;50449;51.528;5.076;2024-03-23T04:18:20;100925.41;;;11.57;65.39
64158;BME280;50449;51.528;5.076;2024-03-23T04:20:45;100922.13;;;11.55;65.46
64158;BME280;50449;51.528;5.076;2024-03-23T04:23:10;100931.28;;;11.54;65.47
64158;BME280;50449;51.528;5.076;2024-03-23T04:25:36;100928.03;;;11.52;65.33
64158;BME280;50449;51.528;5.076;2024-03-23T04:28:01;100926.38;;;11.51;65.27
64158;BME280;50449;51.528;5.076;2024-03-23T04:30:26;100921.22;;;11.49;65.53
64158;BME280;50449;51.528;5.076;2024-03-23T04:32:54;100927.66;;;11.48;65.24
64158;BME280;50449;51.528;5.076;2024-03-23T04:35:19;100929.78;;;11.46;65.35
64158;BME280;50449;51.528;5.076;2024-03-23T04:37:47;100928.16;;;11.45;65.43
64158;BME280;50449;51.528;5.076;2024-03-23T04:40:12;100931.91;;;11.44;65.33
64158;BME280;50449;51.528;5.076;2024-03-23T04:42:38;100921.38;;;11.42;65.34
64158;BME280;50449;51.528;5.076;2024-03-23T04:45:04;100919.97;;;11.40;65.57
64158;BME280;50449;51.528;5.076;2024-03-23T04:47:31;100916.69;;;11.38;65.16
64158;BME280;50449;51.528;5.076;2024-03-23T04:49:56;100914.19;;;11.36;65.56
64158;BME280;50449;51.528;5.076;2024-03-23T04:52:22;100919.88;;;11.35;65.53
64158;BME280;50449;51.528;5.076;2024-03-23T04:54:47;100920.91;;;11.34;65.60
64158;BME280;50449;51.528;5.076;2024-03-23T04:57:13;100916.81;;;11.31;65.41
64158;BME280;50449;51.528;5.076;2024-03-23T04:59:38;100914.38;;;11.30;65.39
64158;BME280;50449;51.528;5.076;2024-03-23T05:02:03;100916.25;;;11.29;65.17
64158;BME280;50449;51.528;5.076;2024-03-23T05:04:29;100922.97;;;11.26;65.45
64158;BME280;50449;51.528;5.076;2024-03-23T05:06:54;100912.41;;;11.25;65.36
64158;BME280;50449;51.528;5.076;2024-03-23T05:09:20;100915.34;;;11.23;65.43
64158;BME280;50449;51.528;5.076;2024-03-23T05:11:46;100921.81;;;11.22;65.42
64158;BME280;50449;51.528;5.076;2024-03-23T05:14:15;100916.63;;;11.21;65.45
64158;BME280;50449;51.528;5.076;2024-03-23T05:16:40;100917.72;;;11.20;65.39
64158;BME280;50449;51.528;5.076;2024-03-23T05:19:06;100922.31;;;11.19;65.29
64158;BME280;50449;51.528;5.076;2024-03-23T05:21:31;100915.25;;;11.18;65.47
64158;BME280;50449;51.528;5.076;2024-03-23T05:23:57;100912.78;;;11.17;64.98
64158;BME280;50449;51.528;5.076;2024-03-23T05:26:22;100918.44;;;11.15;65.20
64158;BME280;50449;51.528;5.076;2024-03-23T05:28:48;100907.03;;;11.13;64.95
64158;BME280;50449;51.528;5.076;2024-03-23T05:31:25;100908.34;;;11.11;65.28
64158;BME280;50449;51.528;5.076;2024-03-23T05:33:51;100909.41;;;11.10;65.05
64158;BME280;50449;51.528;5.076;2024-03-23T05:36:17;100919.66;;;11.08;65.28
64158;BME280;50449;51.528;5.076;2024-03-23T05:38:43;100919.66;;;11.08;65.08
64158;BME280;50449;51.528;5.076;2024-03-23T05:41:08;100920.72;;;11.07;65.08
64158;BME280;50449;51.528;5.076;2024-03-23T05:43:33;100914.72;;;11.04;65.18
64158;BME280;50449;51.528;5.076;2024-03-23T05:46:00;100913.06;;;11.03;64.90
64158;BME280;50449;51.528;5.076;2024-03-23T05:48:26;100914.16;;;11.02;65.05
64158;BME280;50449;51.528;5.076;2024-03-23T05:50:52;100911.66;;;11.01;65.30
64158;BME280;50449;51.528;5.076;2024-03-23T05:53:18;100914.84;;;10.98;65.33
64158;BME280;50449;51.528;5.076;2024-03-23T05:55:44;100915.13;;;10.96;64.81
64158;BME280;50449;51.528;5.076;2024-03-23T05:58:10;100910.75;;;10.95;65.26
64158;BME280;50449;51.528;5.076;2024-03-23T06:00:35;100914.75;;;10.93;64.81
64158;BME280;50449;51.528;5.076;2024-03-23T06:03:01;100912.31;;;10.91;64.97
64158;BME280;50449;51.528;5.076;2024-03-23T06:05:26;100917.13;;;10.89;65.15
64158;BME280;50449;51.528;5.076;2024-03-23T06:07:52;100911.97;;;10.88;64.97
64158;BME280;50449;51.528;5.076;2024-03-23T06:10:18;100923.84;;;10.87;65.29
64158;BME280;50449;51.528;5.076;2024-03-23T06:12:45;100933.00;;;10.86;65.11
64158;BME280;50449;51.528;5.076;2024-03-23T06:15:11;100928.66;;;10.85;64.84
64158;BME280;50449;51.528;5.076;2024-03-23T06:17:36;100943.25;;;10.83;64.66
64158;BME280;50449;51.528;5.076;2024-03-23T06:20:02;100944.53;;;10.81;64.81
64158;BME280;50449;51.528;5.076;2024-03-23T06:22:28;100937.72;;;10.78;64.63
64158;BME280;50449;51.528;5.076;2024-03-23T06:24:53;100941.47;;;10.77;64.72
64158;BME280;50449;51.528;5.076;2024-03-23T06:27:19;100936.56;;;10.74;64.57
64158;BME280;50449;51.528;5.076;2024-03-23T06:29:44;100933.50;;;10.71;64.75
64158;BME280;50449;51.528;5.076;2024-03-23T06:32:10;100928.59;;;10.68;65.08
64158;BME280;50449;51.528;5.076;2024-03-23T06:34:35;100927.78;;;10.67;65.01
64158;BME280;50449;51.528;5.076;2024-03-23T06:37:00;100926.94;;;10.67;64.84
64158;BME280;50449;51.528;5.076;2024-03-23T06:39:26;100929.88;;;10.65;64.76
64158;BME280;50449;51.528;5.076;2024-03-23T06:41:53;100927.44;;;10.64;64.92
64158;BME280;50449;51.528;5.076;2024-03-23T06:44:19;100927.44;;;10.64;65.08
64158;BME280;50449;51.528;5.076;2024-03-23T06:46:45;100933.06;;;10.62;65.10
64158;BME280;50449;51.528;5.076;2024-03-23T06:49:11;100936.84;;;10.61;65.13
64158;BME280;50449;51.528;5.076;2024-03-23T06:51:36;100930.03;;;10.58;65.27
64158;BME280;50449;51.528;5.076;2024-03-23T06:54:03;100932.97;;;10.57;65.16
64158;BME280;50449;51.528;5.076;2024-03-23T06:56:29;100929.66;;;10.55;65.32
64158;BME280;50449;51.528;5.076;2024-03-23T06:58:54;100933.44;;;10.54;65.25
64158;BME280;50449;51.528;5.076;2024-03-23T07:01:19;100936.16;;;10.54;65.45
64158;BME280;50449;51.528;5.076;2024-03-23T07:03:45;100936.16;;;10.54;65.31
64158;BME280;50449;51.528;5.076;2024-03-23T07:06:10;100943.44;;;10.53;65.33
64158;BME280;50449;51.528;5.076;2024-03-23T07:08:35;100946.34;;;10.52;65.12
64158;BME280;50449;51.528;5.076;2024-03-23T07:11:01;100945.75;;;10.50;65.33
64158;BME280;50449;51.528;5.076;2024-03-23T07:13:27;100948.47;;;10.50;65.12
64158;BME280;50449;51.528;5.076;2024-03-23T07:15:53;100943.06;;;10.50;64.92
64158;BME280;50449;51.528;5.076;2024-03-23T07:18:21;100943.31;;;10.48;65.09
64158;BME280;50449;51.528;5.076;2024-03-23T07:20:54;100940.03;;;10.46;65.26
64158;BME280;50449;51.528;5.076;2024-03-23T07:23:19;100941.88;;;10.46;65.54
64158;BME280;50449;51.528;5.076;2024-03-23T07:25:45;100946.47;;;10.45;65.47
64158;BME280;50449;51.528;5.076;2024-03-23T07:28:10;100944.84;;;10.44;65.29
64158;BME280;50449;51.528;5.076;2024-03-23T07:30:35;100935.94;;;10.44;65.28
64158;BME280;50449;51.528;5.076;2024-03-23T07:33:01;100950.72;;;10.41;65.05
64158;BME280;50449;51.528;5.076;2024-03-23T07:35:26;100946.63;;;10.38;65.28
64158;BME280;50449;51.528;5.076;2024-03-23T07:37:52;100939.81;;;10.36;65.20
64158;BME280;50449;51.528;5.076;2024-03-23T07:40:17;100940.03;;;10.34;65.23
64158;BME280;50449;51.528;5.076;2024-03-23T07:42:42;100935.69;;;10.33;65.45
64158;BME280;50449;51.528;5.076;2024-03-23T07:45:08;100937.56;;;10.33;65.44
64158;BME280;50449;51.528;5.076;2024-03-23T07:47:34;100934.84;;;10.33;65.48
64158;BME280;50449;51.528;5.076;2024-03-23T07:50:00;100939.44;;;10.32;65.50
64158;BME280;50449;51.528;5.076;2024-03-23T07:52:28;100937.00;;;10.31;65.45
64158;BME280;50449;51.528;5.076;2024-03-23T07:54:54;100942.63;;;10.29;65.37
64158;BME280;50449;51.528;5.076;2024-03-23T07:57:19;100946.38;;;10.28;65.49
64158;BME280;50449;51.528;5.076;2024-03-23T07:59:44;100938.28;;;10.28;65.21
64158;BME280;50449;51.528;5.076;2024-03-23T08:02:10;100947.88;;;10.24;65.17
64158;BME280;50449;51.528;5.076;2024-03-23T08:04:36;100935.66;;;10.22;65.01
64158;BME280;50449;51.528;5.076;2024-03-23T08:07:01;100932.38;;;10.19;65.03
64158;BME280;50449;51.528;5.076;2024-03-23T08:09:27;100926.16;;;10.19;65.28
64158;BME280;50449;51.528;5.076;2024-03-23T08:11:52;100932.63;;;10.18;65.42
64158;BME280;50449;51.528;5.076;2024-03-23T08:14:18;100929.94;;;10.18;65.44
64158;BME280;50449;51.528;5.076;2024-03-23T08:16:43;100928.03;;;10.18;65.56
64158;BME280;50449;51.528;5.076;2024-03-23T08:19:14;100931.56;;;10.19;65.45
64158;BME280;50449;51.528;5.076;2024-03-23T08:21:39;100936.97;;;10.19;65.68
64158;BME280;50449;51.528;5.076;2024-03-23T08:24:05;100934.47;;;10.17;65.48
64158;BME280;50449;51.528;5.076;2024-03-23T08:26:30;100934.75;;;10.16;65.28
64158;BME280;50449;51.528;5.076;2024-03-23T08:28:56;100939.53;;;10.14;65.88
64158;BME280;50449;51.528;5.076;2024-03-23T08:31:22;100940.34;;;10.14;65.82
64158;BME280;50449;51.528;5.076;2024-03-23T08:33:47;100934.63;;;10.11;65.07
64158;BME280;50449;51.528;5.076;2024-03-23T08:36:13;100936.47;;;10.10;65.34
64158;BME280;50449;51.528;5.076;2024-03-23T08:38:39;100954.81;;;10.08;65.20
64158;BME280;50449;51.528;5.076;2024-03-23T08:41:07;100962.31;;;10.06;65.36
64158;BME280;50449;51.528;5.076;2024-03-23T08:43:35;100949.84;;;10.05;65.79
64158;BME280;50449;51.528;5.076;2024-03-23T08:46:08;100955.25;;;10.05;65.69
64158;BME280;50449;51.528;5.076;2024-03-23T08:48:38;100973.31;;;10.05;66.05
64158;BME280;50449;51.528;5.076;2024-03-23T08:51:07;100967.13;;;10.04;65.63
64158;BME280;50449;51.528;5.076;2024-03-23T08:53:34;100963.59;;;10.04;66.26
64158;BME280;50449;51.528;5.076;2024-03-23T08:56:00;100960.66;;;10.05;65.86
64158;BME280;50449;51.528;5.076;2024-03-23T08:58:28;100953.41;;;10.06;65.57
64158;BME280;50449;51.528;5.076;2024-03-23T09:00:56;100952.31;;;10.07;65.92
64158;BME280;50449;51.528;5.076;2024-03-23T09:03:23;100940.47;;;10.08;65.72
64158;BME280;50449;51.528;5.076;2024-03-23T09:05:49;100945.88;;;10.08;65.60
64158;BME280;50449;51.528;5.076;2024-03-23T09:08:15;100944.00;;;10.08;65.78
64158;BME280;50449;51.528;5.076;2024-03-23T09:10:41;100933.44;;;10.07;65.38
64158;BME280;50449;51.528;5.076;2024-03-23T09:13:07;100927.22;;;10.06;65.50
64158;BME280;50449;51.528;5.076;2024-03-23T09:15:46;100925.69;;;10.10;65.49
64158;BME280;50449;51.528;5.076;2024-03-23T09:18:11;100928.63;;;10.09;65.78
64158;BME280;50449;51.528;5.076;2024-03-23T09:20:37;100928.84;;;10.07;65.44
64158;BME280;50449;51.528;5.076;2024-03-23T09:23:02;100940.13;;;10.04;65.23
64158;BME280;50449;51.528;5.076;2024-03-23T09:25:28;100934.59;;;9.99;65.23
64158;BME280;50449;51.528;5.076;2024-03-23T09:27:53;100923.22;;;9.97;65.20
64158;BME280;50449;51.528;5.076;2024-03-23T09:30:19;100933.78;;;9.99;65.96
64158;BME280;50449;51.528;5.076;2024-03-23T09:32:45;100928.41;;;9.99;65.56
64158;BME280;50449;51.528;5.076;2024-03-23T09:35:11;100922.19;;;9.98;65.43
64158;BME280;50449;51.528;5.076;2024-03-23T09:37:40;100923.81;;;9.99;65.80
64158;BME280;50449;51.528;5.076;2024-03-23T09:40:09;100923.00;;;9.99;66.36
64158;BME280;50449;51.528;5.076;2024-03-23T09:42:36;100922.75;;;10.00;66.18
64158;BME280;50449;51.528;5.076;2024-03-23T09:45:02;100921.94;;;10.00;66.39
64158;BME280;50449;51.528;5.076;2024-03-23T09:47:31;100936.50;;;9.99;65.84
64158;BME280;50449;51.528;5.076;2024-03-23T09:49:57;100936.50;;;9.99;66.31
64158;BME280;50449;51.528;5.076;2024-03-23T09:52:23;100936.25;;;10.00;65.99
64158;BME280;50449;51.528;5.076;2024-03-23T09:54:48;100927.31;;;10.00;65.35
64158;BME280;50449;51.528;5.076;2024-03-23T09:57:14;100938.13;;;10.00;65.83
64158;BME280;50449;51.528;5.076;2024-03-23T09:59:39;100925.22;;;10.02;65.84
64158;BME280;50449;51.528;5.076;2024-03-23T10:02:05;100924.75;;;10.05;66.16
64158;BME280;50449;51.528;5.076;2024-03-23T10:04:41;100925.34;;;10.07;66.06
64158;BME280;50449;51.528;5.076;2024-03-23T10:07:19;100925.94;;;10.09;66.32
64158;BME280;50449;51.528;5.076;2024-03-23T10:09:45;100921.34;;;10.09;66.79
64158;BME280;50449;51.528;5.076;2024-03-23T10:12:13;100933.56;;;10.12;66.94
64158;BME280;50449;51.528;5.076;2024-03-23T10:14:42;100930.38;;;10.15;66.66
64158;BME280;50449;51.528;5.076;2024-03-23T10:17:14;100939.31;;;10.15;67.42
64158;BME280;50449;51.528;5.076;2024-03-23T10:19:40;100923.13;;;10.15;66.93
64158;BME280;50449;51.528;5.076;2024-03-23T10:22:08;100926.97;;;10.19;66.63
64158;BME280;50449;51.528;5.076;2024-03-23T10:24:33;100921.94;;;10.23;67.29
64158;BME280;50449;51.528;5.076;2024-03-23T10:26:59;100916.28;;;10.25;67.10
64158;BME280;50449;51.528;5.076;2024-03-23T10:29:24;100917.69;;;10.27;67.35
64158;BME280;50449;51.528;5.076;2024-03-23T10:31:52;100921.03;;;10.29;67.23
64158;BME280;50449;51.528;5.076;2024-03-23T10:34:25;100924.31;;;10.31;66.99
64158;BME280;50449;51.528;5.076;2024-03-23T10:36:53;100925.47;;;10.35;66.99
64158;BME280;50449;51.528;5.076;2024-03-23T10:39:20;100921.47;;;10.38;66.39
64158;BME280;50449;51.528;5.076;2024-03-23T10:41:49;100927.72;;;10.38;66.80
64158;BME280;50449;51.528;5.076;2024-03-23T10:44:16;100915.84;;;10.39;67.14
64158;BME280;50449;51.528;5.076;2024-03-23T10:46:42;100910.22;;;10.41;67.06
64158;BME280;50449;51.528;5.076;2024-03-23T10:49:07;100907.25;;;10.43;66.86
64158;BME280;50449;51.528;5.076;2024-03-23T10:51:33;100906.44;;;10.42;67.19
64158;BME280;50449;51.528;5.076;2024-03-23T10:53:58;100908.56;;;10.40;66.31
64158;BME280;50449;51.528;5.076;2024-03-23T10:56:25;100904.22;;;10.39;66.31
64158;BME280;50449;51.528;5.076;2024-03-23T10:58:54;100915.84;;;10.39;65.93
64158;BME280;50449;51.528;5.076;2024-03-23T11:01:20;100920.66;;;10.37;67.52
64158;BME280;50449;51.528;5.076;2024-03-23T11:03:46;100917.94;;;10.37;66.76
64158;BME280;50449;51.528;5.076;2024-03-23T11:06:35;100930.41;;;10.38;66.28
64158;BME280;50449;51.528;5.076;2024-03-23T11:09:01;100919.84;;;10.37;66.03
64158;BME280;50449;51.528;5.076;2024-03-23T11:11:26;100921.47;;;10.38;66.49
64158;BME280;50449;51.528;5.076;2024-03-23T11:13:54;100922.31;;;10.38;65.79
64158;BME280;50449;51.528;5.076;2024-03-23T11:16:26;100934.97;;;10.38;67.37
64158;BME280;50449;51.528;5.076;2024-03-23T11:19:33;100946.84;;;10.37;66.93
64158;BME280;50449;51.528;5.076;2024-03-23T11:21:59;100929.00;;;10.36;66.91
64158;BME280;50449;51.528;5.076;2024-03-23T11:24:25;100913.63;;;10.36;66.30
64158;BME280;50449;51.528;5.076;2024-03-23T11:26:51;100914.44;;;10.37;65.36
64158;BME280;50449;51.528;5.076;2024-03-23T11:29:17;100907.16;;;10.37;65.40
64158;BME280;50449;51.528;5.076;2024-03-23T11:31:51;100903.16;;;10.40;65.99
64158;BME280;50449;51.528;5.076;2024-03-23T11:34:17;100900.22;;;10.42;65.64
64158;BME280;50449;51.528;5.076;2024-03-23T11:36:43;100907.84;;;10.45;66.21
64158;BME280;50449;51.528;5.076;2024-03-23T11:39:27;100907.84;;;10.45;65.71
64158;BME280;50449;51.528;5.076;2024-03-23T11:41:53;100907.38;;;10.48;65.16
64158;BME280;50449;51.528;5.076;2024-03-23T11:44:20;100910.91;;;10.48;66.11
64158;BME280;50449;51.528;5.076;2024-03-23T11:46:46;100915.84;;;10.51;66.39
64158;BME280;50449;51.528;5.076;2024-03-23T11:49:27;100912.41;;;10.56;66.29
64158;BME280;50449;51.528;5.076;2024-03-23T11:51:55;100911.13;;;10.58;65.89
64158;BME280;50449;51.528;5.076;2024-03-23T11:54:25;100914.38;;;10.60;66.66
64158;BME280;50449;51.528;5.076;2024-03-23T11:57:02;100900.06;;;10.60;65.65
64158;BME280;50449;51.528;5.076;2024-03-23T11:59:40;100899.03;;;10.61;66.30
64158;BME280;50449;51.528;5.076;2024-03-23T12:02:10;100904.16;;;10.63;66.26
64158;BME280;50449;51.528;5.076;2024-03-23T12:04:36;100893.34;;;10.63;66.50
64158;BME280;50449;51.528;5.076;2024-03-23T12:07:19;100904.97;;;10.63;66.12
64158;BME280;50449;51.528;5.076;2024-03-23T12:09:46;100910.16;;;10.65;65.97
64158;BME280;50449;51.528;5.076;2024-03-23T12:12:17;100910.75;;;10.67;66.40
64158;BME280;50449;51.528;5.076;2024-03-23T12:15:00;100915.44;;;10.71;66.34
64158;BME280;50449;51.528;5.076;2024-03-23T12:17:26;100906.84;;;10.74;66.43
64158;BME280;50449;51.528;5.076;2024-03-23T12:19:51;100907.88;;;10.73;66.64
64158;BME280;50449;51.528;5.076;2024-03-23T12:22:20;100892.97;;;10.71;66.62
64158;BME280;50449;51.528;5.076;2024-03-23T12:24:46;100881.63;;;10.69;66.61
64158;BME280;50449;51.528;5.076;2024-03-23T12:27:11;100882.44;;;10.69;66.05
64158;BME280;50449;51.528;5.076;2024-03-23T12:29:36;100873.25;;;10.70;66.39
64158;BME280;50449;51.528;5.076;2024-03-23T12:32:04;100873.25;;;10.70;66.27
64158;BME280;50449;51.528;5.076;2024-03-23T12:34:30;100868.66;;;10.71;66.33
64158;BME280;50449;51.528;5.076;2024-03-23T12:36:56;100868.44;;;10.72;66.38
64158;BME280;50449;51.528;5.076;2024-03-23T12:39:21;100868.19;;;10.74;66.66
64158;BME280;50449;51.528;5.076;2024-03-23T12:41:48;100866.06;;;10.76;66.63
64158;BME280;50449;51.528;5.076;2024-03-23T12:44:13;100868.53;;;10.77;65.95
64158;BME280;50449;51.528;5.076;2024-03-23T12:46:41;100868.03;;;10.80;65.83
64158;BME280;50449;51.528;5.076;2024-03-23T12:49:06;100868.63;;;10.82;65.76
64158;BME280;50449;51.528;5.076;2024-03-23T12:51:33;100874.38;;;10.86;65.75
64158;BME280;50449;51.528;5.076;2024-03-23T12:53:58;100865.44;;;10.86;65.39
64158;BME280;50449;51.528;5.076;2024-03-23T12:56:24;100864.63;;;10.85;65.58
64158;BME280;50449;51.528;5.076;2024-03-23T12:58:49;100864.88;;;10.83;66.22
64158;BME280;50449;51.528;5.076;2024-03-23T13:01:17;100876.25;;;10.86;65.73
64158;BME280;50449;51.528;5.076;2024-03-23T13:03:42;100881.09;;;10.83;65.94
64158;BME280;50449;51.528;5.076;2024-03-23T13:06:10;100869.69;;;10.81;64.61
64158;BME280;50449;51.528;5.076;2024-03-23T13:08:35;100853.50;;;10.81;65.46
64158;BME280;50449;51.528;5.076;2024-03-23T13:11:01;100868.03;;;10.80;65.60
64158;BME280;50449;51.528;5.076;2024-03-23T13:13:26;100864.53;;;10.80;64.44
64158;BME280;50449;51.528;5.076;2024-03-23T13:15:52;100867.81;;;10.82;65.39
64158;BME280;50449;51.528;5.076;2024-03-23T13:18:17;100862.41;;;10.82;65.42
64158;BME280;50449;51.528;5.076;2024-03-23T13:20:42;100862.19;;;10.83;65.80
64158;BME280;50449;51.528;5.076;2024-03-23T13:23:08;100856.50;;;10.85;65.33
64158;BME280;50449;51.528;5.076;2024-03-23T13:25:34;100853.31;;;10.88;65.15
64158;BME280;50449;51.528;5.076;2024-03-23T13:27:59;100855.78;;;10.90;65.19
64158;BME280;50449;51.528;5.076;2024-03-23T13:30:24;100846.63;;;10.91;64.86
64158;BME280;50449;51.528;5.076;2024-03-23T13:32:50;100857.41;;;10.91;65.07
64158;BME280;50449;51.528;5.076;2024-03-23T13:35:16;100851.19;;;10.90;64.87
64158;BME280;50449;51.528;5.076;2024-03-23T13:37:41;100843.91;;;10.91;65.24
64158;BME280;50449;51.528;5.076;2024-03-23T13:40:07;100839.09;;;10.93;65.35